sensor_id;sensor_type;location;lat;lon;timestamp;P1;durP1;ratioP1;P2;durP2;ratioP2
31872;SDS011;22407;42.820;23.374;2023-02-08T00:01:10;28.95;;;11.18;;
31872;SDS011;22407;42.820;23.374;2023-02-08T00:03:37;30.23;;;10.25;;
31872;SDS011;22407;42.820;23.374;2023-02-08T00:06:02;31.47;;;12.10;;
31872;SDS011;22407;42.820;23.374;2023-02-08T00:08:28;33.03;;;12.57;;
31872;SDS011;22407;42.820;23.374;2023-02-08T00:10:53;29.73;;;11.03;;
31872;SDS011;22407;42.820;23.374;2023-02-08T00:13:19;28.17;;;9.17;;
31872;SDS011;22407;42.820;23.374;2023-02-08T00:15:44;26.20;;;9.37;;
31872;SDS011;22407;42.820;23.374;2023-02-08T00:18:10;24.98;;;9.18;;
31872;SDS011;22407;42.820;23.374;2023-02-08T00:20:39;27.40;;;10.47;;
31872;SDS011;22407;42.820;23.374;2023-02-08T00:23:04;27.58;;;10.77;;
31872;SDS011;22407;42.820;23.374;2023-02-08T00:25:30;26.20;;;10.33;;
31872;SDS011;22407;42.820;23.374;2023-02-08T00:27:55;24.55;;;9.80;;
31872;SDS011;22407;42.820;23.374;2023-02-08T00:30:20;27.93;;;11.00;;
31872;SDS011;22407;42.820;23.374;2023-02-08T00:32:45;23.67;;;9.77;;
31872;SDS011;22407;42.820;23.374;2023-02-08T00:35:11;21.90;;;9.10;;
31872;SDS011;22407;42.820;23.374;2023-02-08T00:37:36;23.90;;;8.83;;
31872;SDS011;22407;42.820;23.374;2023-02-08T00:40:02;27.27;;;10.70;;
31872;SDS011;22407;42.820;23.374;2023-02-08T00:42:29;28.57;;;9.27;;
31872;SDS011;22407;42.820;23.374;2023-02-08T00:44:55;32.83;;;10.52;;
31872;SDS011;22407;42.820;23.374;2023-02-08T00:47:20;27.07;;;10.70;;
31872;SDS011;22407;42.820;23.374;2023-02-08T00:49:45;25.27;;;9.93;;
31872;SDS011;22407;42.820;23.374;2023-02-08T00:52:11;28.20;;;10.70;;
31872;SDS011;22407;42.820;23.374;2023-02-08T00:54:36;29.17;;;11.30;;
31872;SDS011;22407;42.820;23.374;2023-02-08T00:57:01;24.33;;;8.73;;
31872;SDS011;22407;42.820;23.374;2023-02-08T00:59:27;23.73;;;9.97;;
31872;SDS011;22407;42.820;23.374;2023-02-08T01:01:52;27.60;;;9.03;;
31872;SDS011;22407;42.820;23.374;2023-02-08T01:04:17;35.28;;;12.75;;
31872;SDS011;22407;42.820;23.374;2023-02-08T01:06:43;39.03;;;14.37;;
31872;SDS011;22407;42.820;23.374;2023-02-08T01:09:08;35.20;;;13.17;;
31872;SDS011;22407;42.820;23.374;2023-02-08T01:11:33;32.37;;;12.03;;
31872;SDS011;22407;42.820;23.374;2023-02-08T01:13:58;29.70;;;11.10;;
31872;SDS011;22407;42.820;23.374;2023-02-08T01:16:26;30.60;;;10.50;;
31872;SDS011;22407;42.820;23.374;2023-02-08T01:18:52;24.45;;;9.35;;
31872;SDS011;22407;42.820;23.374;2023-02-08T01:21:19;27.55;;;10.50;;
31872;SDS011;22407;42.820;23.374;2023-02-08T01:23:45;21.97;;;9.30;;
31872;SDS011;22407;42.820;23.374;2023-02-08T01:26:10;28.10;;;10.25;;
31872;SDS011;22407;42.820;23.374;2023-02-08T01:28:36;33.97;;;12.60;;
31872;SDS011;22407;42.820;23.374;2023-02-08T01:31:11;29.63;;;11.57;;
31872;SDS011;22407;42.820;23.374;2023-02-08T01:33:37;48.50;;;17.63;;
31872;SDS011;22407;42.820;23.374;2023-02-08T01:36:02;32.23;;;12.37;;
31872;SDS011;22407;42.820;23.374;2023-02-08T01:38:28;24.77;;;10.15;;
31872;SDS011;22407;42.820;23.374;2023-02-08T01:40:53;23.37;;;9.33;;
31872;SDS011;22407;42.820;23.374;2023-02-08T01:43:19;27.63;;;9.23;;
31872;SDS011;22407;42.820;23.374;2023-02-08T01:45:46;27.85;;;10.45;;
31872;SDS011;22407;42.820;23.374;2023-02-08T01:48:12;22.97;;;9.67;;
31872;SDS011;22407;42.820;23.374;2023-02-08T01:50:44;25.85;;;10.23;;
31872;SDS011;22407;42.820;23.374;2023-02-08T01:53:12;22.97;;;9.23;;
31872;SDS011;22407;42.820;23.374;2023-02-08T01:55:38;23.35;;;9.38;;
31872;SDS011;22407;42.820;23.374;2023-02-08T01:58:05;23.80;;;9.10;;
31872;SDS011;22407;42.820;23.374;2023-02-08T02:00:32;27.42;;;11.05;;
31872;SDS011;22407;42.820;23.374;2023-02-08T02:02:58;23.03;;;9.07;;
31872;SDS011;22407;42.820;23.374;2023-02-08T02:05:27;28.50;;;9.95;;
31872;SDS011;22407;42.820;23.374;2023-02-08T02:07:53;28.35;;;10.35;;
31872;SDS011;22407;42.820;23.374;2023-02-08T02:12:48;26.50;;;9.27;;
31872;SDS011;22407;42.820;23.374;2023-02-08T02:15:14;22.27;;;8.13;;
31872;SDS011;22407;42.820;23.374;2023-02-08T02:17:39;23.43;;;9.83;;
31872;SDS011;22407;42.820;23.374;2023-02-08T02:25:31;24.70;;;10.07;;
31872;SDS011;22407;42.820;23.374;2023-02-08T02:33:22;34.25;;;12.88;;
31872;SDS011;22407;42.820;23.374;2023-02-08T02:41:05;28.38;;;11.20;;
31872;SDS011;22407;42.820;23.374;2023-02-08T02:43:44;27.30;;;11.00;;
31872;SDS011;22407;42.820;23.374;2023-02-08T02:51:24;30.30;;;10.73;;
31872;SDS011;22407;42.820;23.374;2023-02-08T02:53:52;31.00;;;12.15;;
31872;SDS011;22407;42.820;23.374;2023-02-08T02:56:38;29.58;;;12.98;;
31872;SDS011;22407;42.820;23.374;2023-02-08T02:59:07;39.35;;;14.02;;
31872;SDS011;22407;42.820;23.374;2023-02-08T03:01:33;33.85;;;12.52;;
31872;SDS011;22407;42.820;23.374;2023-02-08T03:03:59;30.13;;;10.67;;
31872;SDS011;22407;42.820;23.374;2023-02-08T03:11:36;22.48;;;9.70;;
31872;SDS011;22407;42.820;23.374;2023-02-08T03:19:19;26.05;;;9.85;;
31872;SDS011;22407;42.820;23.374;2023-02-08T03:21:47;23.47;;;8.60;;
31872;SDS011;22407;42.820;23.374;2023-02-08T03:24:26;20.60;;;8.18;;
31872;SDS011;22407;42.820;23.374;2023-02-08T03:29:38;23.13;;;8.77;;
31872;SDS011;22407;42.820;23.374;2023-02-08T03:32:49;20.17;;;7.88;;
31872;SDS011;22407;42.820;23.374;2023-02-08T03:34:58;22.60;;;8.75;;
31872;SDS011;22407;42.820;23.374;2023-02-08T03:37:26;23.23;;;8.80;;
31872;SDS011;22407;42.820;23.374;2023-02-08T03:40:00;24.48;;;9.68;;
31872;SDS011;22407;42.820;23.374;2023-02-08T03:42:26;23.53;;;10.03;;
31872;SDS011;22407;42.820;23.374;2023-02-08T03:44:57;26.58;;;11.98;;
31872;SDS011;22407;42.820;23.374;2023-02-08T03:47:27;27.00;;;10.85;;
31872;SDS011;22407;42.820;23.374;2023-02-08T03:49:54;30.63;;;11.45;;
31872;SDS011;22407;42.820;23.374;2023-02-08T03:52:21;26.92;;;11.93;;
31872;SDS011;22407;42.820;23.374;2023-02-08T03:54:51;26.67;;;9.53;;
31872;SDS011;22407;42.820;23.374;2023-02-08T03:59:45;25.77;;;10.13;;
31872;SDS011;22407;42.820;23.374;2023-02-08T04:02:12;21.85;;;8.30;;
31872;SDS011;22407;42.820;23.374;2023-02-08T04:04:39;21.45;;;8.20;;
31872;SDS011;22407;42.820;23.374;2023-02-08T04:07:06;22.02;;;7.88;;
31872;SDS011;22407;42.820;23.374;2023-02-08T04:09:31;22.77;;;8.33;;
31872;SDS011;22407;42.820;23.374;2023-02-08T04:11:57;22.03;;;7.67;;
31872;SDS011;22407;42.820;23.374;2023-02-08T04:14:22;21.98;;;9.35;;
31872;SDS011;22407;42.820;23.374;2023-02-08T04:16:48;24.00;;;9.30;;
31872;SDS011;22407;42.820;23.374;2023-02-08T04:19:13;21.07;;;7.50;;
31872;SDS011;22407;42.820;23.374;2023-02-08T04:21:38;16.70;;;5.80;;
31872;SDS011;22407;42.820;23.374;2023-02-08T04:24:04;13.90;;;5.70;;
31872;SDS011;22407;42.820;23.374;2023-02-08T04:26:29;16.07;;;5.90;;
31872;SDS011;22407;42.820;23.374;2023-02-08T04:28:54;17.33;;;7.33;;
31872;SDS011;22407;42.820;23.374;2023-02-08T04:31:20;17.65;;;7.18;;
31872;SDS011;22407;42.820;23.374;2023-02-08T04:33:45;18.67;;;6.87;;
31872;SDS011;22407;42.820;23.374;2023-02-08T04:36:10;17.57;;;6.70;;
31872;SDS011;22407;42.820;23.374;2023-02-08T04:38:35;18.83;;;6.90;;
31872;SDS011;22407;42.820;23.374;2023-02-08T04:41:01;22.63;;;8.60;;
31872;SDS011;22407;42.820;23.374;2023-02-08T04:43:26;23.63;;;8.97;;
31872;SDS011;22407;42.820;23.374;2023-02-08T04:45:51;27.67;;;9.23;;
31872;SDS011;22407;42.820;23.374;2023-02-08T04:48:17;30.30;;;8.93;;
31872;SDS011;22407;42.820;23.374;2023-02-08T04:50:42;31.73;;;11.43;;
31872;SDS011;22407;42.820;23.374;2023-02-08T04:53:07;42.88;;;14.77;;
31872;SDS011;22407;42.820;23.374;2023-02-08T04:55:33;43.07;;;15.13;;
31872;SDS011;22407;42.820;23.374;2023-02-08T04:57:58;35.33;;;13.13;;
31872;SDS011;22407;42.820;23.374;2023-02-08T05:00:24;33.87;;;12.20;;
31872;SDS011;22407;42.820;23.374;2023-02-08T05:02:52;56.43;;;18.53;;
31872;SDS011;22407;42.820;23.374;2023-02-08T05:05:18;55.67;;;19.25;;
31872;SDS011;22407;42.820;23.374;2023-02-08T05:07:43;52.53;;;18.97;;
31872;SDS011;22407;42.820;23.374;2023-02-08T05:10:08;56.67;;;18.40;;
31872;SDS011;22407;42.820;23.374;2023-02-08T05:12:34;49.50;;;18.97;;
31872;SDS011;22407;42.820;23.374;2023-02-08T05:14:59;44.20;;;16.70;;
31872;SDS011;22407;42.820;23.374;2023-02-08T05:17:24;36.03;;;14.23;;
31872;SDS011;22407;42.820;23.374;2023-02-08T05:19:49;29.43;;;11.43;;
31872;SDS011;22407;42.820;23.374;2023-02-08T05:22:15;25.30;;;9.63;;
31872;SDS011;22407;42.820;23.374;2023-02-08T05:24:40;31.85;;;10.80;;
31872;SDS011;22407;42.820;23.374;2023-02-08T05:27:06;39.20;;;13.37;;
31872;SDS011;22407;42.820;23.374;2023-02-08T05:29:31;42.20;;;15.47;;
31872;SDS011;22407;42.820;23.374;2023-02-08T05:31:56;62.30;;;19.63;;
31872;SDS011;22407;42.820;23.374;2023-02-08T05:34:22;55.97;;;19.33;;
31872;SDS011;22407;42.820;23.374;2023-02-08T05:36:47;48.77;;;15.27;;
31872;SDS011;22407;42.820;23.374;2023-02-08T05:39:12;40.37;;;14.60;;
31872;SDS011;22407;42.820;23.374;2023-02-08T05:41:37;47.58;;;14.82;;
31872;SDS011;22407;42.820;23.374;2023-02-08T05:44:03;41.80;;;13.20;;
31872;SDS011;22407;42.820;23.374;2023-02-08T05:46:28;39.67;;;14.50;;
31872;SDS011;22407;42.820;23.374;2023-02-08T05:48:53;67.93;;;23.03;;
31872;SDS011;22407;42.820;23.374;2023-02-08T05:51:19;73.90;;;26.53;;
31872;SDS011;22407;42.820;23.374;2023-02-08T05:53:45;81.13;;;26.35;;
31872;SDS011;22407;42.820;23.374;2023-02-08T05:56:10;91.50;;;29.97;;
31872;SDS011;22407;42.820;23.374;2023-02-08T05:58:35;82.87;;;27.27;;
31872;SDS011;22407;42.820;23.374;2023-02-08T06:01:00;70.60;;;23.33;;
31872;SDS011;22407;42.820;23.374;2023-02-08T06:03:31;53.00;;;19.58;;
31872;SDS011;22407;42.820;23.374;2023-02-08T06:05:57;69.30;;;22.97;;
31872;SDS011;22407;42.820;23.374;2023-02-08T06:08:23;51.73;;;18.70;;
31872;SDS011;22407;42.820;23.374;2023-02-08T06:10:49;53.57;;;20.27;;
31872;SDS011;22407;42.820;23.374;2023-02-08T06:13:14;89.63;;;29.17;;
31872;SDS011;22407;42.820;23.374;2023-02-08T06:15:42;48.55;;;17.48;;
31872;SDS011;22407;42.820;23.374;2023-02-08T06:18:07;39.97;;;15.50;;
31872;SDS011;22407;42.820;23.374;2023-02-08T06:20:33;38.60;;;14.20;;
31872;SDS011;22407;42.820;23.374;2023-02-08T06:22:58;44.87;;;17.17;;
31872;SDS011;22407;42.820;23.374;2023-02-08T06:25:23;51.80;;;23.10;;
31872;SDS011;22407;42.820;23.374;2023-02-08T06:27:48;52.77;;;22.30;;
31872;SDS011;22407;42.820;23.374;2023-02-08T06:30:14;51.10;;;21.00;;
31872;SDS011;22407;42.820;23.374;2023-02-08T06:32:39;37.07;;;15.60;;
31872;SDS011;22407;42.820;23.374;2023-02-08T06:35:04;27.30;;;10.87;;
31872;SDS011;22407;42.820;23.374;2023-02-08T06:37:30;25.92;;;10.80;;
31872;SDS011;22407;42.820;23.374;2023-02-08T06:39:55;24.73;;;10.10;;
31872;SDS011;22407;42.820;23.374;2023-02-08T06:42:20;25.17;;;10.83;;
31872;SDS011;22407;42.820;23.374;2023-02-08T06:44:45;28.73;;;12.67;;
31872;SDS011;22407;42.820;23.374;2023-02-08T06:47:14;38.80;;;17.17;;
31872;SDS011;22407;42.820;23.374;2023-02-08T06:49:39;39.47;;;16.73;;
31872;SDS011;22407;42.820;23.374;2023-02-08T06:52:05;32.72;;;15.35;;
31872;SDS011;22407;42.820;23.374;2023-02-08T06:54:30;52.27;;;20.30;;
31872;SDS011;22407;42.820;23.374;2023-02-08T06:56:56;55.87;;;23.23;;
31872;SDS011;22407;42.820;23.374;2023-02-08T06:59:21;47.13;;;19.57;;
31872;SDS011;22407;42.820;23.374;2023-02-08T07:01:46;41.57;;;17.97;;
31872;SDS011;22407;42.820;23.374;2023-02-08T07:04:12;42.97;;;16.50;;
31872;SDS011;22407;42.820;23.374;2023-02-08T07:06:37;32.23;;;14.77;;
31872;SDS011;22407;42.820;23.374;2023-02-08T07:09:02;25.10;;;10.90;;
31872;SDS011;22407;42.820;23.374;2023-02-08T07:11:28;28.97;;;12.20;;
31872;SDS011;22407;42.820;23.374;2023-02-08T07:13:53;27.10;;;12.00;;
31872;SDS011;22407;42.820;23.374;2023-02-08T07:16:19;26.60;;;10.77;;
31872;SDS011;22407;42.820;23.374;2023-02-08T07:18:44;23.43;;;10.50;;
31872;SDS011;22407;42.820;23.374;2023-02-08T07:21:10;23.23;;;9.97;;
31872;SDS011;22407;42.820;23.374;2023-02-08T07:23:38;26.88;;;9.48;;
31872;SDS011;22407;42.820;23.374;2023-02-08T07:26:07;23.77;;;9.70;;
31872;SDS011;22407;42.820;23.374;2023-02-08T07:28:33;20.48;;;8.98;;
31872;SDS011;22407;42.820;23.374;2023-02-08T07:30:58;25.07;;;9.70;;
31872;SDS011;22407;42.820;23.374;2023-02-08T07:33:24;29.70;;;12.87;;
31872;SDS011;22407;42.820;23.374;2023-02-08T07:35:49;20.77;;;9.38;;
31872;SDS011;22407;42.820;23.374;2023-02-08T07:38:15;23.37;;;10.53;;
31872;SDS011;22407;42.820;23.374;2023-02-08T07:40:40;24.77;;;10.07;;
31872;SDS011;22407;42.820;23.374;2023-02-08T07:43:05;22.60;;;9.80;;
31872;SDS011;22407;42.820;23.374;2023-02-08T07:45:31;22.53;;;9.83;;
31872;SDS011;22407;42.820;23.374;2023-02-08T07:47:57;24.77;;;11.25;;
31872;SDS011;22407;42.820;23.374;2023-02-08T07:50:22;45.73;;;19.33;;
31872;SDS011;22407;42.820;23.374;2023-02-08T07:52:47;34.77;;;14.57;;
31872;SDS011;22407;42.820;23.374;2023-02-08T07:55:13;74.77;;;28.43;;
31872;SDS011;22407;42.820;23.374;2023-02-08T07:57:45;62.15;;;25.13;;
31872;SDS011;22407;42.820;23.374;2023-02-08T08:00:11;46.58;;;20.60;;
31872;SDS011;22407;42.820;23.374;2023-02-08T08:02:37;27.97;;;11.90;;
31872;SDS011;22407;42.820;23.374;2023-02-08T08:05:03;25.98;;;11.45;;
31872;SDS011;22407;42.820;23.374;2023-02-08T08:07:28;26.30;;;10.13;;
31872;SDS011;22407;42.820;23.374;2023-02-08T08:09:53;21.43;;;9.60;;
31872;SDS011;22407;42.820;23.374;2023-02-08T08:12:19;25.60;;;10.47;;
31872;SDS011;22407;42.820;23.374;2023-02-08T08:14:44;23.88;;;10.73;;
31872;SDS011;22407;42.820;23.374;2023-02-08T08:17:10;26.83;;;10.83;;
31872;SDS011;22407;42.820;23.374;2023-02-08T08:19:35;25.07;;;10.40;;
31872;SDS011;22407;42.820;23.374;2023-02-08T08:22:00;23.50;;;9.47;;
31872;SDS011;22407;42.820;23.374;2023-02-08T08:24:25;20.23;;;8.10;;
31872;SDS011;22407;42.820;23.374;2023-02-08T08:26:51;20.20;;;9.13;;
31872;SDS011;22407;42.820;23.374;2023-02-08T08:29:16;24.03;;;9.37;;
31872;SDS011;22407;42.820;23.374;2023-02-08T08:31:42;26.87;;;10.47;;
31872;SDS011;22407;42.820;23.374;2023-02-08T08:34:07;24.83;;;10.73;;
31872;SDS011;22407;42.820;23.374;2023-02-08T08:36:33;24.70;;;9.10;;
31872;SDS011;22407;42.820;23.374;2023-02-08T08:38:58;19.50;;;8.53;;
31872;SDS011;22407;42.820;23.374;2023-02-08T08:41:23;20.00;;;7.77;;
31872;SDS011;22407;42.820;23.374;2023-02-08T08:43:51;18.80;;;7.75;;
31872;SDS011;22407;42.820;23.374;2023-02-08T08:46:16;19.53;;;8.00;;
31872;SDS011;22407;42.820;23.374;2023-02-08T08:48:41;43.13;;;16.00;;
31872;SDS011;22407;42.820;23.374;2023-02-08T08:51:07;21.47;;;9.03;;
31872;SDS011;22407;42.820;23.374;2023-02-08T08:53:32;20.03;;;7.03;;
31872;SDS011;22407;42.820;23.374;2023-02-08T08:55:57;19.47;;;7.30;;
31872;SDS011;22407;42.820;23.374;2023-02-08T08:58:23;19.90;;;8.40;;
31872;SDS011;22407;42.820;23.374;2023-02-08T09:00:49;20.87;;;8.17;;
31872;SDS011;22407;42.820;23.374;2023-02-08T09:03:14;22.50;;;8.40;;
31872;SDS011;22407;42.820;23.374;2023-02-08T09:05:40;15.53;;;6.30;;
31872;SDS011;22407;42.820;23.374;2023-02-08T09:08:05;31.57;;;11.67;;
31872;SDS011;22407;42.820;23.374;2023-02-08T09:10:30;24.88;;;8.65;;
31872;SDS011;22407;42.820;23.374;2023-02-08T09:12:56;20.43;;;7.77;;
31872;SDS011;22407;42.820;23.374;2023-02-08T09:15:22;14.80;;;7.05;;
31872;SDS011;22407;42.820;23.374;2023-02-08T09:17:47;12.83;;;6.27;;
31872;SDS011;22407;42.820;23.374;2023-02-08T09:20:12;25.40;;;7.70;;
31872;SDS011;22407;42.820;23.374;2023-02-08T09:22:38;8.07;;;3.67;;
31872;SDS011;22407;42.820;23.374;2023-02-08T09:25:03;13.30;;;4.63;;
31872;SDS011;22407;42.820;23.374;2023-02-08T09:27:31;11.77;;;4.55;;
31872;SDS011;22407;42.820;23.374;2023-02-08T09:29:56;15.53;;;5.97;;
31872;SDS011;22407;42.820;23.374;2023-02-08T09:32:21;14.90;;;5.87;;
31872;SDS011;22407;42.820;23.374;2023-02-08T09:34:47;16.37;;;6.43;;
31872;SDS011;22407;42.820;23.374;2023-02-08T09:37:12;18.97;;;7.37;;
31872;SDS011;22407;42.820;23.374;2023-02-08T09:39:39;15.02;;;6.78;;
31872;SDS011;22407;42.820;23.374;2023-02-08T09:42:17;15.30;;;6.07;;
31872;SDS011;22407;42.820;23.374;2023-02-08T09:47:21;9.70;;;4.43;;
31872;SDS011;22407;42.820;23.374;2023-02-08T09:49:59;12.85;;;5.60;;
31872;SDS011;22407;42.820;23.374;2023-02-08T09:52:34;8.80;;;3.83;;
31872;SDS011;22407;42.820;23.374;2023-02-08T09:55:02;11.95;;;4.85;;
31872;SDS011;22407;42.820;23.374;2023-02-08T09:57:30;10.80;;;4.80;;
31872;SDS011;22407;42.820;23.374;2023-02-08T10:00:06;9.93;;;4.88;;
31872;SDS011;22407;42.820;23.374;2023-02-08T10:02:35;11.32;;;4.60;;
31872;SDS011;22407;42.820;23.374;2023-02-08T10:05:01;10.40;;;4.53;;
31872;SDS011;22407;42.820;23.374;2023-02-08T10:07:28;9.73;;;4.72;;
31872;SDS011;22407;42.820;23.374;2023-02-08T10:09:54;9.50;;;4.00;;
31872;SDS011;22407;42.820;23.374;2023-02-08T10:15:01;12.15;;;4.93;;
31872;SDS011;22407;42.820;23.374;2023-02-08T10:30:03;10.93;;;5.88;;
31872;SDS011;22407;42.820;23.374;2023-02-08T10:32:42;12.15;;;6.38;;
31872;SDS011;22407;42.820;23.374;2023-02-08T10:37:35;13.47;;;6.37;;
31872;SDS011;22407;42.820;23.374;2023-02-08T10:40:12;14.77;;;6.43;;
31872;SDS011;22407;42.820;23.374;2023-02-08T10:42:38;13.85;;;6.18;;
31872;SDS011;22407;42.820;23.374;2023-02-08T10:45:14;11.55;;;5.50;;
31872;SDS011;22407;42.820;23.374;2023-02-08T10:47:43;14.57;;;5.80;;
31872;SDS011;22407;42.820;23.374;2023-02-08T10:50:31;11.97;;;5.23;;
31872;SDS011;22407;42.820;23.374;2023-02-08T10:53:14;14.88;;;5.28;;
31872;SDS011;22407;42.820;23.374;2023-02-08T10:55:41;10.45;;;5.05;;
31872;SDS011;22407;42.820;23.374;2023-02-08T10:58:09;13.63;;;4.95;;
31872;SDS011;22407;42.820;23.374;2023-02-08T11:00:36;12.63;;;5.85;;
31872;SDS011;22407;42.820;23.374;2023-02-08T11:03:23;15.07;;;6.87;;
31872;SDS011;22407;42.820;23.374;2023-02-08T11:05:49;11.68;;;4.97;;
31872;SDS011;22407;42.820;23.374;2023-02-08T11:08:21;11.13;;;5.43;;
31872;SDS011;22407;42.820;23.374;2023-02-08T11:10:57;14.80;;;7.23;;
31872;SDS011;22407;42.820;23.374;2023-02-08T11:13:25;11.68;;;6.03;;
31872;SDS011;22407;42.820;23.374;2023-02-08T11:15:55;12.30;;;5.22;;
31872;SDS011;22407;42.820;23.374;2023-02-08T11:18:24;11.88;;;5.13;;
31872;SDS011;22407;42.820;23.374;2023-02-08T11:21:01;12.15;;;5.95;;
31872;SDS011;22407;42.820;23.374;2023-02-08T11:23:30;14.40;;;6.30;;
31872;SDS011;22407;42.820;23.374;2023-02-08T11:26:11;13.82;;;5.10;;
31872;SDS011;22407;42.820;23.374;2023-02-08T11:28:39;17.02;;;7.25;;
31872;SDS011;22407;42.820;23.374;2023-02-08T11:31:09;15.00;;;6.33;;
31872;SDS011;22407;42.820;23.374;2023-02-08T11:33:40;10.85;;;4.55;;
31872;SDS011;22407;42.820;23.374;2023-02-08T11:36:21;15.85;;;7.25;;
31872;SDS011;22407;42.820;23.374;2023-02-08T11:38:46;11.47;;;5.33;;
31872;SDS011;22407;42.820;23.374;2023-02-08T11:41:13;16.40;;;7.00;;
31872;SDS011;22407;42.820;23.374;2023-02-08T11:43:39;12.13;;;6.05;;
31872;SDS011;22407;42.820;23.374;2023-02-08T11:46:05;14.90;;;6.73;;
31872;SDS011;22407;42.820;23.374;2023-02-08T11:48:34;16.02;;;6.45;;
31872;SDS011;22407;42.820;23.374;2023-02-08T11:51:02;13.40;;;5.53;;
31872;SDS011;22407;42.820;23.374;2023-02-08T11:53:38;11.55;;;5.32;;
31872;SDS011;22407;42.820;23.374;2023-02-08T11:56:23;13.57;;;6.63;;
31872;SDS011;22407;42.820;23.374;2023-02-08T12:01:34;11.00;;;5.60;;
31872;SDS011;22407;42.820;23.374;2023-02-08T12:04:00;13.60;;;5.53;;
31872;SDS011;22407;42.820;23.374;2023-02-08T12:22:39;13.02;;;5.80;;
31872;SDS011;22407;42.820;23.374;2023-02-08T12:25:14;14.90;;;6.70;;
31872;SDS011;22407;42.820;23.374;2023-02-08T12:30:22;15.27;;;7.17;;
31872;SDS011;22407;42.820;23.374;2023-02-08T12:38:11;11.70;;;6.18;;
31872;SDS011;22407;42.820;23.374;2023-02-08T12:41:21;13.40;;;6.30;;
31872;SDS011;22407;42.820;23.374;2023-02-08T12:44:06;14.60;;;7.00;;
31872;SDS011;22407;42.820;23.374;2023-02-08T12:54:15;17.52;;;7.50;;
31872;SDS011;22407;42.820;23.374;2023-02-08T12:56:43;10.20;;;5.53;;
31872;SDS011;22407;42.820;23.374;2023-02-08T12:59:33;10.68;;;4.97;;
31872;SDS011;22407;42.820;23.374;2023-02-08T13:01:56;10.68;;;4.80;;
31872;SDS011;22407;42.820;23.374;2023-02-08T13:04:26;11.77;;;4.97;;
31872;SDS011;22407;42.820;23.374;2023-02-08T13:06:57;10.60;;;5.10;;
31872;SDS011;22407;42.820;23.374;2023-02-08T13:12:10;12.18;;;5.38;;
31872;SDS011;22407;42.820;23.374;2023-02-08T13:14:42;12.32;;;5.72;;
31872;SDS011;22407;42.820;23.374;2023-02-08T13:17:23;13.07;;;6.40;;
31872;SDS011;22407;42.820;23.374;2023-02-08T13:19:55;11.35;;;5.55;;
31872;SDS011;22407;42.820;23.374;2023-02-08T13:22:21;14.00;;;5.97;;
31872;SDS011;22407;42.820;23.374;2023-02-08T13:24:47;12.95;;;6.47;;
31872;SDS011;22407;42.820;23.374;2023-02-08T13:27:17;13.40;;;6.23;;
31872;SDS011;22407;42.820;23.374;2023-02-08T13:29:43;13.32;;;5.88;;
31872;SDS011;22407;42.820;23.374;2023-02-08T13:32:29;13.77;;;6.40;;
31872;SDS011;22407;42.820;23.374;2023-02-08T13:35:10;17.02;;;8.13;;
31872;SDS011;22407;42.820;23.374;2023-02-08T13:37:37;15.05;;;6.95;;
31872;SDS011;22407;42.820;23.374;2023-02-08T13:40:45;12.30;;;5.50;;
31872;SDS011;22407;42.820;23.374;2023-02-08T13:43:01;13.48;;;5.55;;
31872;SDS011;22407;42.820;23.374;2023-02-08T13:45:49;14.53;;;6.20;;
31872;SDS011;22407;42.820;23.374;2023-02-08T13:48:13;17.80;;;7.32;;
31872;SDS011;22407;42.820;23.374;2023-02-08T13:56:10;16.35;;;7.03;;
31872;SDS011;22407;42.820;23.374;2023-02-08T14:01:20;17.45;;;7.15;;
31872;SDS011;22407;42.820;23.374;2023-02-08T14:04:29;15.95;;;7.45;;
31872;SDS011;22407;42.820;23.374;2023-02-08T14:06:35;14.15;;;6.63;;
31872;SDS011;22407;42.820;23.374;2023-02-08T14:09:11;15.23;;;6.85;;
31872;SDS011;22407;42.820;23.374;2023-02-08T14:11:41;16.70;;;7.57;;
31872;SDS011;22407;42.820;23.374;2023-02-08T14:16:44;16.30;;;6.82;;
31872;SDS011;22407;42.820;23.374;2023-02-08T14:21:43;12.23;;;5.57;;
31872;SDS011;22407;42.820;23.374;2023-02-08T14:24:18;15.15;;;6.88;;
31872;SDS011;22407;42.820;23.374;2023-02-08T14:26:44;14.98;;;6.68;;
31872;SDS011;22407;42.820;23.374;2023-02-08T14:29:15;14.50;;;6.43;;
31872;SDS011;22407;42.820;23.374;2023-02-08T14:31:42;16.03;;;7.27;;
31872;SDS011;22407;42.820;23.374;2023-02-08T14:34:41;11.65;;;5.28;;
31872;SDS011;22407;42.820;23.374;2023-02-08T14:37:25;15.70;;;6.60;;
31872;SDS011;22407;42.820;23.374;2023-02-08T14:40:03;19.30;;;9.07;;
31872;SDS011;22407;42.820;23.374;2023-02-08T14:45:40;17.20;;;7.53;;
31872;SDS011;22407;42.820;23.374;2023-02-08T14:58:43;15.83;;;6.53;;
31872;SDS011;22407;42.820;23.374;2023-02-08T15:01:20;15.10;;;7.03;;
31872;SDS011;22407;42.820;23.374;2023-02-08T15:03:46;13.32;;;6.97;;
31872;SDS011;22407;42.820;23.374;2023-02-08T15:06:18;14.43;;;6.43;;
31872;SDS011;22407;42.820;23.374;2023-02-08T15:08:50;15.70;;;6.93;;
31872;SDS011;22407;42.820;23.374;2023-02-08T15:11:23;18.93;;;8.60;;
31872;SDS011;22407;42.820;23.374;2023-02-08T15:13:49;12.85;;;5.90;;
31872;SDS011;22407;42.820;23.374;2023-02-08T15:16:17;15.88;;;8.65;;
31872;SDS011;22407;42.820;23.374;2023-02-08T15:18:44;18.17;;;8.13;;
31872;SDS011;22407;42.820;23.374;2023-02-08T15:21:17;12.63;;;6.22;;
31872;SDS011;22407;42.820;23.374;2023-02-08T15:23:56;25.00;;;11.43;;
31872;SDS011;22407;42.820;23.374;2023-02-08T15:26:22;14.30;;;6.55;;
31872;SDS011;22407;42.820;23.374;2023-02-08T15:28:47;13.20;;;6.40;;
31872;SDS011;22407;42.820;23.374;2023-02-08T15:31:22;15.67;;;6.37;;
31872;SDS011;22407;42.820;23.374;2023-02-08T15:33:51;15.63;;;7.45;;
31872;SDS011;22407;42.820;23.374;2023-02-08T15:36:21;16.23;;;7.75;;
31872;SDS011;22407;42.820;23.374;2023-02-08T15:38:49;13.75;;;6.53;;
31872;SDS011;22407;42.820;23.374;2023-02-08T15:41:22;18.00;;;8.53;;
31872;SDS011;22407;42.820;23.374;2023-02-08T15:43:47;22.10;;;11.55;;
31872;SDS011;22407;42.820;23.374;2023-02-08T15:46:21;13.80;;;7.43;;
31872;SDS011;22407;42.820;23.374;2023-02-08T15:48:47;18.52;;;7.30;;
31872;SDS011;22407;42.820;23.374;2023-02-08T15:51:12;18.37;;;8.27;;
31872;SDS011;22407;42.820;23.374;2023-02-08T15:53:40;19.25;;;7.88;;
31872;SDS011;22407;42.820;23.374;2023-02-08T15:56:07;14.80;;;6.57;;
31872;SDS011;22407;42.820;23.374;2023-02-08T15:58:34;14.70;;;5.80;;
31872;SDS011;22407;42.820;23.374;2023-02-08T16:01:01;12.13;;;5.50;;
31872;SDS011;22407;42.820;23.374;2023-02-08T16:03:27;20.73;;;8.10;;
31872;SDS011;22407;42.820;23.374;2023-02-08T16:05:57;14.05;;;5.80;;
31872;SDS011;22407;42.820;23.374;2023-02-08T16:08:25;55.75;;;19.58;;
31872;SDS011;22407;42.820;23.374;2023-02-08T16:10:52;22.65;;;9.05;;
31872;SDS011;22407;42.820;23.374;2023-02-08T16:13:22;18.03;;;7.57;;
31872;SDS011;22407;42.820;23.374;2023-02-08T16:15:53;14.32;;;5.97;;
31872;SDS011;22407;42.820;23.374;2023-02-08T16:23:51;45.85;;;15.85;;
31872;SDS011;22407;42.820;23.374;2023-02-08T16:26:21;47.03;;;18.50;;
31872;SDS011;22407;42.820;23.374;2023-02-08T16:28:52;22.90;;;7.88;;
31872;SDS011;22407;42.820;23.374;2023-02-08T16:31:21;13.70;;;5.55;;